Atlantic - Newfoundland: Past 24 Hour Conditions

 

Nickerson Bank - 44251

06:00 PM ADT 16 September 2014Buoy position: 46.45N 53.38W
This table is a summary of hourly weather conditions for the past 24 hours.
Date / Time
(ADT)
Wind(knots) Wave height(m) Wave period(s) Pressure(kPa) Air tempC) Water tempC)
16 September 2014
18:00 W 14 gust 16 1.2 8.0 101.5 14 15
17:00 W 14 gust 16 1.2 7.0 101.5 14 15
16:00 W 14 gust 16 1.2 7.0 101.4 14 15
15:00 W 14 gust 16 1.1 7.0 101.4 14 15
14:00 WSW 12 gust 14 1.2 7.0 101.4 14 15
13:00 W 12 gust 14 1.1 7.0 101.4 14 15
12:00 WSW 10 gust 12 1.2 7.0 101.4 14 15
11:00 W 10 gust 12 1.2 7.0 101.5 14 15
10:00 W 10 gust 12 1.3 7.0 101.5 14 15
9:00 W 10 gust 12 1.3 6.0 101.4 14 15
8:00 W 10 gust 12 1.3 7.0 101.4 14 15
7:00 WSW 12 gust 14 1.4 7.0 101.4 14 15
6:00 WSW 10 gust 12 1.4 8.0 101.4 14 15
5:00 W 8 gust 10 1.5 8.0 101.3 14 15
4:00 W 12 gust 14 1.5 8.0 101.3 13 15
3:00 W 12 gust 14 1.3 7.0 101.3 13 15
2:00 WNW 12 gust 14 1.5 7.0 101.3 13 15
1:00 W 12 gust 16 1.6 8.0 101.3 13 15
0:00 WNW 14 gust 16 1.6 8.0 101.3 13 15
15 September 2014
23:00 WNW 16 gust 19 1.8 7.0 101.4 13 15
22:00 WNW 12 gust 16 2.0 8.0 101.4 14 15
21:00 WNW 14 gust 16 2.0 8.0 101.3 14 15
20:00 WNW 8 gust 10 2.1 8.0 101.3 15 15
19:00 WNW 10 gust 12 2.1 9.0 101.3 15 15
18:00 WSW 2 gust 4 2.1 9.0 101.2 14 15
 
Map of Atlantic - Newfoundland marine weather areas Southwestern Grand Banks - 44138 Banquereau - 44139 Tail of the Bank - 44140 Nickerson Bank - 44251 Northeast Burgeo Bank - 44255 Blanc-Sablon Airport Cap Whittle Chevery Natashquan Airport Heath Point Miscou Island Grand Étang Ingonish Beach North Mountain St.Paul Island J.A. Douglas McCurdy Sydney Airport Charlottetown Airport East Point North Cape Argentia Bonavista Burgeo Cape Race Corner Brook Daniel's Harbour Englee Ferolle Point La Scie Port aux Basques Rocky Harbour Sagona Island St. Anthony Airport St. John's Int'l Airport St. Lawrence Stephenville Airport Twillingate Winterland Wreckhouse Cartwright Airport Mary's Harbour Grates Cove Pool's Island Marticot Island Long Pond Îles de la Madeleine Airport
Legend: buoyBuoy land stationLand Station